createdAt,value
2023-11-18T00:01:46.017Z,1.17
2023-11-18T00:04:21.823Z,1.10
2023-11-18T00:06:49.141Z,1.15
2023-11-18T00:09:16.081Z,1.33
2023-11-18T00:11:45.952Z,1.20
2023-11-18T00:14:12.883Z,1.00
2023-11-18T00:16:39.900Z,1.00
2023-11-18T00:19:07.204Z,0.88
2023-11-18T00:21:34.269Z,0.80
2023-11-18T00:24:01.020Z,0.90
2023-11-18T00:26:27.793Z,0.80
2023-11-18T00:28:54.872Z,0.73
2023-11-18T00:31:21.835Z,0.80
2023-11-18T00:33:48.651Z,0.60
2023-11-18T00:36:15.491Z,0.70
2023-11-18T00:38:42.242Z,0.52
2023-11-18T00:41:09.031Z,0.52
2023-11-18T00:43:36.031Z,0.65
2023-11-18T00:46:04.473Z,0.60
2023-11-18T00:48:31.471Z,0.50
2023-11-18T00:50:58.572Z,0.50
2023-11-18T00:53:25.609Z,0.30
2023-11-18T00:55:52.415Z,0.30
2023-11-18T00:58:19.198Z,0.50
2023-11-18T01:00:45.978Z,0.30
2023-11-18T01:03:12.835Z,0.30
2023-11-18T01:05:40.165Z,0.40
2023-11-18T01:08:06.976Z,0.47
2023-11-18T01:10:33.735Z,0.40
2023-11-18T01:13:00.724Z,0.40
2023-11-18T01:15:27.797Z,0.40
2023-11-18T01:17:54.654Z,1.00
2023-11-18T01:20:23.353Z,0.88
2023-11-18T01:22:50.668Z,0.93
2023-11-18T01:25:20.368Z,0.73
2023-11-18T01:27:50.038Z,1.02
2023-11-18T01:30:16.818Z,0.80
2023-11-18T01:32:44.035Z,0.90
2023-11-18T01:35:12.353Z,0.82
2023-11-18T01:37:39.811Z,1.00
2023-11-18T01:40:14.503Z,0.85
2023-11-18T01:42:44.470Z,0.93
2023-11-18T01:45:12.832Z,1.10
2023-11-18T01:47:41.063Z,1.30
2023-11-18T01:50:10.605Z,1.17
2023-11-18T01:52:37.875Z,1.05
2023-11-18T01:55:08.056Z,1.23
2023-11-18T01:57:35.823Z,1.30
2023-11-18T02:00:07.366Z,1.20
2023-11-18T02:02:36.180Z,1.50
2023-11-18T02:05:03.163Z,1.40
2023-11-18T02:07:30.463Z,1.10
2023-11-18T02:09:58.769Z,1.42
2023-11-18T02:12:37.715Z,1.35
2023-11-18T02:15:11.130Z,1.50
2023-11-18T02:17:45.976Z,1.40
2023-11-18T02:20:18.125Z,1.27
2023-11-18T02:22:47.275Z,1.20
2023-11-18T02:25:17.918Z,1.20
2023-11-18T02:27:46.511Z,1.52
2023-11-18T02:30:17.739Z,1.55
2023-11-18T02:32:51.954Z,1.60
2023-11-18T02:35:31.730Z,1.70
2023-11-18T02:38:01.443Z,1.48
2023-11-18T02:40:34.756Z,1.35
2023-11-18T02:43:02.714Z,1.30
2023-11-18T02:45:29.990Z,1.50
2023-11-18T02:47:58.435Z,1.40
2023-11-18T02:50:26.091Z,1.15
2023-11-18T02:52:52.891Z,1.20
2023-11-18T02:55:19.804Z,1.00
2023-11-18T02:57:47.887Z,1.30
2023-11-18T03:00:19.961Z,1.27
2023-11-18T03:02:51.130Z,1.10
2023-11-18T03:05:18.557Z,1.20
2023-11-18T03:07:50.615Z,1.40
2023-11-18T03:10:22.461Z,1.25
2023-11-18T03:12:53.816Z,1.35
2023-11-18T03:15:22.613Z,1.02
2023-11-18T03:17:53.521Z,1.17
2023-11-18T03:20:23.914Z,1.27
2023-11-18T03:22:52.241Z,1.00
2023-11-18T03:25:23.460Z,1.02
2023-11-18T03:27:50.648Z,1.10
2023-11-18T03:30:18.077Z,1.13
2023-11-18T03:32:45.183Z,1.20
2023-11-18T03:35:12.198Z,1.20
2023-11-18T03:37:42.255Z,1.40
2023-11-18T03:40:10.182Z,1.02
2023-11-18T03:42:38.460Z,1.38
2023-11-18T03:45:06.122Z,1.50
2023-11-18T03:47:34.939Z,1.55
2023-11-18T03:50:02.198Z,1.80
2023-11-18T03:52:30.208Z,1.33
2023-11-18T03:54:57.238Z,1.27
2023-11-18T03:57:24.214Z,1.30
2023-11-18T03:59:51.547Z,1.35
2023-11-18T04:02:18.682Z,1.25
2023-11-18T04:04:45.838Z,1.48
2023-11-18T04:07:12.644Z,1.88
2023-11-18T04:09:42.197Z,1.55
2023-11-18T04:12:09.413Z,1.70
2023-11-18T04:14:36.382Z,1.52
2023-11-18T04:17:03.321Z,1.60
2023-11-18T04:19:30.142Z,1.55
2023-11-18T04:21:56.953Z,1.50
2023-11-18T04:24:23.679Z,1.60
2023-11-18T04:26:51.338Z,1.27
2023-11-18T04:29:19.172Z,1.40
2023-11-18T04:31:45.921Z,1.80
2023-11-18T04:34:13.150Z,1.55
2023-11-18T04:36:42.628Z,1.65
2023-11-18T04:39:12.693Z,2.15
2023-11-18T04:41:39.851Z,1.48
2023-11-18T04:44:06.725Z,1.48
2023-11-18T04:46:33.645Z,1.80
2023-11-18T04:49:03.119Z,1.80
2023-11-18T04:51:29.922Z,1.70
2023-11-18T04:53:56.638Z,2.03
2023-11-18T04:56:23.468Z,1.60
2023-11-18T04:58:50.318Z,1.88
2023-11-18T05:01:17.219Z,2.08
2023-11-18T05:03:44.179Z,2.03
2023-11-18T05:06:10.948Z,2.28
2023-11-18T05:08:37.796Z,2.03
2023-11-18T05:11:06.231Z,1.90
2023-11-18T05:13:34.995Z,2.20
2023-11-18T05:16:02.257Z,1.90
2023-11-18T05:18:34.823Z,1.80
2023-11-18T05:21:02.860Z,2.17
2023-11-18T05:23:32.925Z,1.70
2023-11-18T05:26:00.016Z,1.90
2023-11-18T05:28:26.934Z,1.83
2023-11-18T05:30:53.872Z,2.05
2023-11-18T05:33:21.456Z,1.80
2023-11-18T05:35:50.990Z,2.05
2023-11-18T05:38:23.148Z,2.00
2023-11-18T05:40:57.607Z,1.90
2023-11-18T05:43:38.277Z,2.05
2023-11-18T05:46:29.208Z,1.65
2023-11-18T05:48:57.095Z,2.15
2023-11-18T05:51:26.388Z,2.20
2023-11-18T05:53:53.813Z,2.03
2023-11-18T05:56:23.882Z,2.20
2023-11-18T05:58:51.477Z,2.20
2023-11-18T06:01:18.700Z,2.10
2023-11-18T06:03:47.364Z,2.28
2023-11-18T06:06:19.196Z,1.75
2023-11-18T06:08:48.733Z,2.17
2023-11-18T06:11:17.042Z,2.30
2023-11-18T06:13:48.394Z,2.53
2023-11-18T06:16:22.836Z,1.85
2023-11-18T06:18:52.097Z,2.13
2023-11-18T06:21:21.194Z,2.30
2023-11-18T06:23:49.159Z,2.08
2023-11-18T06:26:17.179Z,2.50
2023-11-18T06:28:45.407Z,2.30
2023-11-18T06:31:13.207Z,2.10
2023-11-18T06:33:44.410Z,2.67
2023-11-18T06:36:19.066Z,2.20
2023-11-18T06:38:53.318Z,2.58
2023-11-18T06:41:24.304Z,2.30
2023-11-18T06:43:58.072Z,2.28
2023-11-18T06:46:30.416Z,2.38
2023-11-18T06:48:58.716Z,2.28
2023-11-18T06:51:28.400Z,2.33
2023-11-18T06:53:56.862Z,2.42
2023-11-18T06:56:28.100Z,2.78
2023-11-18T06:58:58.211Z,2.70
2023-11-18T07:01:24.961Z,2.40
2023-11-18T07:03:54.625Z,2.80
2023-11-18T07:06:24.052Z,2.88
2023-11-18T07:08:51.240Z,2.90
2023-11-18T07:11:18.642Z,2.45
2023-11-18T07:13:47.035Z,3.33
2023-11-18T07:16:15.546Z,3.10
2023-11-18T07:18:45.525Z,2.80
2023-11-18T07:21:12.955Z,3.08
2023-11-18T07:23:39.737Z,3.60
2023-11-18T07:26:06.866Z,3.13
2023-11-18T07:28:33.711Z,3.97
2023-11-18T07:31:00.903Z,3.47
2023-11-18T07:33:28.045Z,3.45
2023-11-18T07:35:56.023Z,4.93
2023-11-18T07:38:23.141Z,3.72
2023-11-18T07:40:50.186Z,3.22
2023-11-18T07:43:17.309Z,3.30
2023-11-18T07:45:44.374Z,4.32
2023-11-18T07:48:13.085Z,3.50
2023-11-18T07:50:45.539Z,3.60
2023-11-18T07:53:12.925Z,3.33
2023-11-18T07:55:40.578Z,3.53
2023-11-18T07:58:14.144Z,3.17
2023-11-18T08:00:43.619Z,3.72
2023-11-18T08:03:14.696Z,3.25
2023-11-18T08:05:46.793Z,3.42
2023-11-18T08:08:15.042Z,3.00
2023-11-18T08:10:43.561Z,3.60
2023-11-18T08:13:12.076Z,3.72
2023-11-18T08:15:43.687Z,3.88
2023-11-18T08:18:13.566Z,3.78
2023-11-18T08:20:40.822Z,3.30
2023-11-18T08:23:07.869Z,2.90
2023-11-18T08:25:37.221Z,4.00
2023-11-18T08:28:06.126Z,3.95
2023-11-18T08:30:35.094Z,4.63
2023-11-18T08:33:06.012Z,4.55
2023-11-18T08:35:33.250Z,4.85
2023-11-18T08:38:00.535Z,5.00
2023-11-18T08:40:27.423Z,5.60
2023-11-18T08:42:57.000Z,3.85
2023-11-18T08:45:34.061Z,4.70
2023-11-18T08:48:08.723Z,4.55
2023-11-18T08:50:36.837Z,4.43
2023-11-18T08:53:06.731Z,5.43
2023-11-18T08:55:41.816Z,4.60
2023-11-18T08:58:19.923Z,4.38
2023-11-18T09:01:05.586Z,4.50
2023-11-18T09:03:44.161Z,4.65
2023-11-18T09:06:27.331Z,4.68
2023-11-18T09:08:55.194Z,4.05
2023-11-18T09:11:28.495Z,4.10
2023-11-18T09:13:58.474Z,4.03
2023-11-18T09:16:30.809Z,4.22
2023-11-18T09:19:00.856Z,4.05
2023-11-18T09:21:30.779Z,3.85
2023-11-18T09:23:57.949Z,4.03
2023-11-18T09:26:26.860Z,3.75
2023-11-18T09:28:54.034Z,3.72
2023-11-18T09:31:22.766Z,4.10
2023-11-18T09:33:53.823Z,4.05
2023-11-18T09:36:22.810Z,4.28
2023-11-18T09:38:50.743Z,3.60
2023-11-18T09:41:19.767Z,3.17
2023-11-18T09:43:48.771Z,3.42
2023-11-18T09:46:25.770Z,3.63
2023-11-18T09:48:54.664Z,3.63
2023-11-18T09:51:24.731Z,3.22
2023-11-18T09:53:54.139Z,3.45
2023-11-18T09:56:27.691Z,4.10
2023-11-18T09:59:27.395Z,3.63
2023-11-18T10:01:59.261Z,3.53
2023-11-18T10:04:28.989Z,3.50
2023-11-18T10:06:57.650Z,3.28
2023-11-18T10:09:41.018Z,2.92
2023-11-18T10:12:13.638Z,2.90
2023-11-18T10:14:45.149Z,3.03
2023-11-18T10:17:15.814Z,2.80
2023-11-18T10:20:01.232Z,2.60
2023-11-18T10:22:30.465Z,3.08
2023-11-18T10:24:58.527Z,3.10
2023-11-18T10:27:27.075Z,2.50
2023-11-18T10:30:04.128Z,2.25
2023-11-18T10:32:36.632Z,2.28
2023-11-18T10:35:08.907Z,2.17
2023-11-18T10:37:43.334Z,2.55
2023-11-18T10:40:14.380Z,2.40
2023-11-18T10:42:44.008Z,2.25
2023-11-18T10:45:14.212Z,2.63
2023-11-18T10:47:44.170Z,2.70
2023-11-18T10:50:11.599Z,2.30
2023-11-18T10:52:42.192Z,3.03
2023-11-18T10:55:13.556Z,2.70
2023-11-18T10:57:43.407Z,2.72
2023-11-18T11:00:20.109Z,2.95
2023-11-18T11:02:51.129Z,2.80
2023-11-18T11:05:34.584Z,2.60
2023-11-18T11:08:04.353Z,2.95
2023-11-18T11:10:31.051Z,3.40
2023-11-18T11:13:02.907Z,3.22
2023-11-18T11:15:44.757Z,3.38
2023-11-18T11:18:29.375Z,3.72
2023-11-18T11:21:06.260Z,3.45
2023-11-18T11:24:06.009Z,3.20
2023-11-18T11:26:57.947Z,3.22
2023-11-18T11:29:40.080Z,3.42
2023-11-18T11:32:17.543Z,3.00
2023-11-18T11:34:55.215Z,3.08
2023-11-18T11:37:27.506Z,4.28
2023-11-18T11:39:58.439Z,3.30
2023-11-18T11:42:25.797Z,3.10
2023-11-18T11:44:56.965Z,3.28
2023-11-18T11:47:24.773Z,2.80
2023-11-18T11:50:02.503Z,2.58
2023-11-18T11:52:38.821Z,2.47
2023-11-18T11:55:16.865Z,2.53
2023-11-18T11:57:44.041Z,2.30
2023-11-18T12:00:18.160Z,2.17
2023-11-18T12:02:55.844Z,1.88
2023-11-18T12:05:29.140Z,1.95
2023-11-18T12:07:57.270Z,1.63
2023-11-18T12:10:33.825Z,1.65
2023-11-18T12:13:17.183Z,1.75
2023-11-18T12:15:55.921Z,3.30
2023-11-18T12:18:23.463Z,1.92
2023-11-18T12:20:55.195Z,1.33
2023-11-18T12:23:26.710Z,1.70
2023-11-18T12:25:57.846Z,1.50
2023-11-18T12:28:29.121Z,1.48
2023-11-18T12:31:05.680Z,1.70
2023-11-18T12:33:51.430Z,2.00
2023-11-18T12:36:31.194Z,1.40
2023-11-18T12:39:16.183Z,1.60
2023-11-18T12:41:42.974Z,1.95
2023-11-18T12:44:33.138Z,1.90
2023-11-18T12:47:24.270Z,2.60
2023-11-18T12:49:55.669Z,2.38
2023-11-18T12:52:24.358Z,2.15
2023-11-18T12:54:59.456Z,2.20
2023-11-18T12:57:32.686Z,2.10
2023-11-18T13:00:02.135Z,1.98
2023-11-18T13:02:29.796Z,2.28
2023-11-18T13:04:56.663Z,2.05
2023-11-18T13:07:24.294Z,1.40
2023-11-18T13:09:51.869Z,1.45
2023-11-18T13:12:21.409Z,2.03
2023-11-18T13:14:48.712Z,2.33
2023-11-18T13:17:18.723Z,1.20
2023-11-18T13:19:48.520Z,1.92
2023-11-18T13:22:15.957Z,1.10
2023-11-18T13:24:47.107Z,1.30
2023-11-18T13:27:17.545Z,1.30
2023-11-18T13:29:51.766Z,1.10
2023-11-18T13:32:24.200Z,1.10
2023-11-18T13:34:52.701Z,1.20
2023-11-18T13:37:23.811Z,1.27
2023-11-18T13:39:57.683Z,1.90
2023-11-18T13:42:31.967Z,1.00
2023-11-18T13:45:13.170Z,1.05
2023-11-18T13:47:40.436Z,1.15
2023-11-18T13:50:11.490Z,1.00
2023-11-18T13:52:39.923Z,1.15
2023-11-18T13:55:08.395Z,0.98
2023-11-18T13:57:35.883Z,1.08
2023-11-18T14:00:03.846Z,0.80
2023-11-18T14:02:30.948Z,1.00
2023-11-18T14:04:57.948Z,1.33
2023-11-18T14:07:25.392Z,1.10
2023-11-18T14:09:55.626Z,0.95
2023-11-18T14:12:23.622Z,1.25
2023-11-18T14:14:51.389Z,1.35
2023-11-18T14:17:18.183Z,0.90
2023-11-18T14:19:45.017Z,1.40
2023-11-18T14:22:12.162Z,1.25
2023-11-18T14:24:39.469Z,1.50
2023-11-18T14:27:08.960Z,1.02
2023-11-18T14:29:37.485Z,1.10
2023-11-18T14:32:04.914Z,1.23
2023-11-18T14:34:31.666Z,1.40
2023-11-18T14:36:58.492Z,2.58
2023-11-18T14:39:26.842Z,1.30
2023-11-18T14:41:54.690Z,1.15
2023-11-18T14:44:21.741Z,1.90
2023-11-18T14:46:48.565Z,2.10
2023-11-18T14:49:15.630Z,1.65
2023-11-18T14:51:44.634Z,1.30
2023-11-18T14:54:11.383Z,1.90
2023-11-18T14:56:38.264Z,1.42
2023-11-18T14:59:06.986Z,1.40
2023-11-18T15:01:34.068Z,1.60
2023-11-18T15:04:00.926Z,1.20
2023-11-18T15:06:28.799Z,1.35
2023-11-18T15:08:58.068Z,1.10
2023-11-18T15:11:25.461Z,1.27
2023-11-18T15:13:57.695Z,1.50
2023-11-18T15:16:24.689Z,1.38
2023-11-18T15:18:53.693Z,1.20
2023-11-18T15:21:21.394Z,1.50
2023-11-18T15:23:49.463Z,1.67
2023-11-18T15:26:16.529Z,1.60
2023-11-18T15:28:43.426Z,1.40
2023-11-18T15:31:10.239Z,1.33
2023-11-18T15:33:37.060Z,1.60
2023-11-18T15:36:04.641Z,1.60
2023-11-18T15:38:31.584Z,1.70
2023-11-18T15:40:58.451Z,1.50
2023-11-18T15:43:25.361Z,1.40
2023-11-18T15:45:52.713Z,1.80
2023-11-18T15:48:19.634Z,2.00
2023-11-18T15:50:46.753Z,1.70
2023-11-18T15:53:15.591Z,2.20
2023-11-18T15:55:45.047Z,2.10
2023-11-18T15:58:12.089Z,2.15
2023-11-18T16:00:39.113Z,2.30
2023-11-18T16:03:10.324Z,2.30
2023-11-18T16:05:37.707Z,2.15
2023-11-18T16:08:08.283Z,1.67
2023-11-18T16:10:35.592Z,2.03
2023-11-18T16:13:03.414Z,2.03
2023-11-18T16:15:31.515Z,2.33
2023-11-18T16:17:59.429Z,2.75
2023-11-18T16:20:28.713Z,2.60
2023-11-18T16:22:58.014Z,2.55
2023-11-18T16:25:28.808Z,2.55
2023-11-18T16:28:00.576Z,2.75
2023-11-18T16:30:31.722Z,2.67
2023-11-18T16:33:00.449Z,2.42
2023-11-18T16:35:27.789Z,3.10
2023-11-18T16:37:55.698Z,3.00
2023-11-18T16:40:25.124Z,3.55
2023-11-18T16:42:57.265Z,3.80
2023-11-18T16:45:25.733Z,3.63
2023-11-18T16:47:54.367Z,3.30
2023-11-18T16:50:27.615Z,2.97
2023-11-18T16:52:55.153Z,3.55
2023-11-18T16:55:22.801Z,3.72
2023-11-18T16:57:53.628Z,3.60
2023-11-18T17:00:25.367Z,3.75
2023-11-18T17:02:57.175Z,3.90
2023-11-18T17:05:26.606Z,4.20
2023-11-18T17:07:56.203Z,4.30
2023-11-18T17:10:23.987Z,4.47
2023-11-18T17:12:52.165Z,5.15
2023-11-18T17:15:19.919Z,4.32
2023-11-18T17:17:48.952Z,4.85
2023-11-18T17:20:17.014Z,4.95
2023-11-18T17:22:44.556Z,4.75
2023-11-18T17:25:18.040Z,4.97
2023-11-18T17:27:46.835Z,4.70
2023-11-18T17:30:17.121Z,5.38
2023-11-18T17:32:44.820Z,5.22
2023-11-18T17:35:16.290Z,5.20
2023-11-18T17:37:46.774Z,5.30
2023-11-18T17:40:14.510Z,5.20
2023-11-18T17:42:45.747Z,5.53
2023-11-18T17:45:13.988Z,6.03
2023-11-18T17:47:45.068Z,5.90
2023-11-18T17:50:14.098Z,5.65
2023-11-18T17:52:43.027Z,6.20
2023-11-18T17:55:10.681Z,6.00
2023-11-18T17:57:37.605Z,5.28
2023-11-18T18:00:12.958Z,5.57
2023-11-18T18:05:13.576Z,6.75
2023-11-18T18:07:41.349Z,5.20
2023-11-18T18:10:13.019Z,6.18
2023-11-18T18:12:42.412Z,6.07
2023-11-18T18:15:11.336Z,6.15
2023-11-18T18:17:38.632Z,6.75
2023-11-18T18:20:10.820Z,6.28
2023-11-18T18:22:38.581Z,6.32
2023-11-18T18:25:05.884Z,6.50
2023-11-18T18:27:33.708Z,6.40
2023-11-18T18:30:01.366Z,7.03
2023-11-18T18:32:28.377Z,6.93
2023-11-18T18:34:55.166Z,7.03
2023-11-18T18:37:23.384Z,7.78
2023-11-18T18:39:53.696Z,7.75
2023-11-18T18:42:23.908Z,7.70
2023-11-18T18:44:51.027Z,8.07
2023-11-18T18:47:20.224Z,7.50
2023-11-18T18:49:48.957Z,7.70
2023-11-18T18:52:15.718Z,7.60
2023-11-18T18:54:42.457Z,8.15
2023-11-18T18:57:09.183Z,8.02
2023-11-18T18:59:37.020Z,8.73
2023-11-18T19:02:03.934Z,8.15
2023-11-18T19:04:30.692Z,7.65
2023-11-18T19:06:57.532Z,8.70
2023-11-18T19:09:24.298Z,9.63
2023-11-18T19:11:51.110Z,9.98
2023-11-18T19:14:18.860Z,10.07
2023-11-18T19:16:45.772Z,11.10
2023-11-18T19:19:12.843Z,13.15
2023-11-18T19:21:39.685Z,13.20
2023-11-18T19:24:09.255Z,14.00
2023-11-18T19:26:37.623Z,12.95
2023-11-18T19:29:04.942Z,11.65
2023-11-18T19:31:31.734Z,11.35
2023-11-18T19:33:59.574Z,9.98
2023-11-18T19:36:26.887Z,9.82
2023-11-18T19:38:53.945Z,8.32
2023-11-18T19:41:21.265Z,8.57
2023-11-18T19:43:49.959Z,9.18
2023-11-18T19:46:17.300Z,9.45
2023-11-18T19:48:44.195Z,8.68
2023-11-18T19:51:11.946Z,9.18
2023-11-18T19:53:38.867Z,9.68
2023-11-18T19:56:06.010Z,8.88
2023-11-18T19:58:33.167Z,9.80
2023-11-18T20:01:00.482Z,9.27
2023-11-18T20:03:27.561Z,8.80
2023-11-18T20:05:54.749Z,8.70
2023-11-18T20:08:21.665Z,8.80
2023-11-18T20:10:48.744Z,9.30
2023-11-18T20:13:16.263Z,8.90
2023-11-18T20:15:43.313Z,9.13
2023-11-18T20:18:12.890Z,8.07
2023-11-18T20:20:40.172Z,9.00
2023-11-18T20:23:07.389Z,8.45
2023-11-18T20:25:35.032Z,8.38
2023-11-18T20:28:03.467Z,9.13
2023-11-18T20:30:30.746Z,8.45
2023-11-18T20:32:58.445Z,9.32
2023-11-18T20:35:25.757Z,9.70
2023-11-18T20:37:53.192Z,9.13
2023-11-18T20:40:22.916Z,8.93
2023-11-18T20:42:50.990Z,9.55
2023-11-18T20:45:19.357Z,9.73
2023-11-18T20:47:47.054Z,9.50
2023-11-18T20:50:14.830Z,9.23
2023-11-18T20:52:42.783Z,9.80
2023-11-18T20:55:10.364Z,8.85
2023-11-18T20:57:38.277Z,9.85
2023-11-18T21:00:08.084Z,10.48
2023-11-18T21:02:38.141Z,9.63
2023-11-18T21:05:13.118Z,9.70
2023-11-18T21:07:40.464Z,10.10
2023-11-18T21:10:07.801Z,8.98
2023-11-18T21:12:34.894Z,9.68
2023-11-18T21:15:04.712Z,9.73
2023-11-18T21:17:32.671Z,9.10
2023-11-18T21:19:59.813Z,9.48
2023-11-18T21:22:26.760Z,9.05
2023-11-18T21:24:54.605Z,9.32
2023-11-18T21:27:21.495Z,9.70
2023-11-18T21:29:48.297Z,9.52
2023-11-18T21:32:15.158Z,10.52
2023-11-18T21:34:42.250Z,11.13
2023-11-18T21:37:11.320Z,30.67
2023-11-18T21:39:40.067Z,45.28
2023-11-18T21:42:08.822Z,50.85
2023-11-18T21:44:36.637Z,39.92
2023-11-18T21:47:03.981Z,33.92
2023-11-18T21:49:31.080Z,40.00
2023-11-18T21:51:57.887Z,50.25
2023-11-18T21:54:32.304Z,64.03
2023-11-18T21:56:59.247Z,67.13
2023-11-18T21:59:27.342Z,86.25
2023-11-18T22:01:56.127Z,140.50
2023-11-18T22:04:23.336Z,148.73
2023-11-18T22:06:53.393Z,146.63
2023-11-18T22:09:25.217Z,162.80
2023-11-18T22:11:52.409Z,183.55
2023-11-18T22:14:19.348Z,154.93
2023-11-18T22:16:47.029Z,158.05
2023-11-18T22:19:16.440Z,149.90
2023-11-18T22:21:43.603Z,114.72
2023-11-18T22:24:11.007Z,89.78
2023-11-18T22:26:38.822Z,99.88
2023-11-18T22:29:05.761Z,119.75
2023-11-18T22:31:32.805Z,114.25
2023-11-18T22:33:59.558Z,104.60
2023-11-18T22:36:26.305Z,103.28
2023-11-18T22:38:53.326Z,96.55
2023-11-18T22:41:20.269Z,112.72
2023-11-18T22:43:47.279Z,129.30
2023-11-18T22:46:14.347Z,119.97
2023-11-18T22:48:41.110Z,101.03
2023-11-18T22:51:07.903Z,75.57
2023-11-18T22:53:34.713Z,61.08
2023-11-18T22:56:01.471Z,43.92
2023-11-18T22:58:28.263Z,44.53
2023-11-18T23:00:56.509Z,39.25
2023-11-18T23:03:23.764Z,37.28
2023-11-18T23:05:53.949Z,33.13
2023-11-18T23:08:23.237Z,27.20
2023-11-18T23:10:50.549Z,21.23
2023-11-18T23:13:19.422Z,15.27
2023-11-18T23:15:47.640Z,14.25
2023-11-18T23:18:15.625Z,13.15
2023-11-18T23:20:42.526Z,12.35
2023-11-18T23:23:09.444Z,12.38
2023-11-18T23:25:36.863Z,12.65
2023-11-18T23:28:08.550Z,12.63
2023-11-18T23:30:36.040Z,12.55
2023-11-18T23:33:02.917Z,11.85
2023-11-18T23:35:30.714Z,12.40
2023-11-18T23:37:57.622Z,11.85
2023-11-18T23:40:24.532Z,11.65
2023-11-18T23:42:52.097Z,11.15
2023-11-18T23:45:20.174Z,11.63
2023-11-18T23:47:51.678Z,11.25
2023-11-18T23:50:19.293Z,11.52
2023-11-18T23:52:46.348Z,11.02
2023-11-18T23:55:16.523Z,10.75
2023-11-18T23:57:43.564Z,10.88
